METAR Data
IDs: Format: Raw Decoded Include TAF

Data at: 1039 UTC 18 Jan 2022

KGUC 180956Z AUTO 00000KT 10SM CLR M13/M15 A3008 RMK AO2 SLP249 T11331150 FZRANO
KGUC 180856Z AUTO 00000KT 10SM CLR M12/M15 A3009 RMK AO2 SLP248 T11221150 55004 FZRANO
KGUC 180756Z AUTO 00000KT 10SM CLR M12/M14 A3009 RMK AO2 SLP255 T11221144 FZRANO
KGUC 180656Z AUTO 00000KT 10SM CLR M12/M13 A3010 RMK AO2 SLP259 T11171133 FZRANO
KGUC 180556Z AUTO 00000KT 10SM CLR M11/M13 A3010 RMK AO2 SLP269 T11111133 11044 21111 410111189 58005 FZRANO
KGUC 180456Z AUTO 36003KT 10SM CLR M10/M14 A3010 RMK AO2 SLP277 T11001139 FZRANO
KGUC 180356Z AUTO 03003KT 10SM CLR M08/M14 A3012 RMK AO2 SLP291 T10781139 FZRANO
KGUC 180256Z AUTO 00000KT 10SM CLR M08/M14 A3012 RMK AO2 SLP300 T10781139 50004 FZRANO
KGUC 180156Z AUTO 01005KT 10SM CLR M08/M13 A3012 RMK AO2 SLP297 T10781133 FZRANO
KGUC 180056Z AUTO 35003KT 10SM CLR M07/M13 A3012 RMK AO2 SLP295 T10671128 FZRANO
KGUC 172356Z AUTO 35004KT 10SM CLR M04/M12 A3011 RMK AO2 SLP282 T10441122 11011 21083 55007 FZRANO
KGUC 172256Z AUTO 01007KT 10SM CLR M03/M12 A3011 RMK AO2 SLP278 T10331122 FZRANO
KGUC 172156Z AUTO 01005KT 10SM CLR M03/M12 A3012 RMK AO2 SLP275 T10281122 FZRANO
KGUC 172056Z AUTO 00000KT 10SM CLR M03/M13 A3013 RMK AO2 SLP280 T10281133 58037 FZRANO
KGUC 171956Z AUTO 36004KT 10SM CLR M05/M14 A3019 RMK AO2 SLP302 T10501139 FZRANO
KGUC 171856Z AUTO 00000KT 10SM CLR M06/M14 A3023 RMK AO2 SLP310 T10561144 FZRANO
KGUC 171756Z AUTO 00000KT 10SM CLR M08/M15 A3027 RMK AO2 SLP336 T10781150 11078 21189 58005 FZRANO
KGUC 171656Z AUTO 00000KT 10SM CLR M11/M17 A3029 RMK AO2 SLP356 T11111167 FZRANO
KGUC 171556Z AUTO 00000KT 10SM CLR M16/M20 A3029 RMK AO2 SLP368 T11611200 FZRANO
KGUC 171456Z AUTO 00000KT 10SM CLR M18/M21 A3029 RMK AO2 SLP367 T11831206 53003 FZRANO
KGUC 171356Z AUTO 00000KT 10SM CLR M17/M21 A3028 RMK AO2 SLP353 T11671206 FZRANO
KGUC 171256Z AUTO 00000KT 10SM CLR M18/M21 A3027 RMK AO2 SLP354 T11831206 FZRANO
KGUC 171156Z AUTO 00000KT 10SM CLR M18/M20 A3028 RMK AO2 SLP343 T11781200 11128 21183 55003 FZRANO
KGUC 171056Z AUTO 00000KT 10SM CLR M18/M20 A3027 RMK AO2 SLP338 T11781200 FZRANO
KGUC 170956Z AUTO 00000KT 10SM CLR M16/M19 A3028 RMK AO2 SLP338 T11611189 FZRANO
KGUC 170856Z AUTO 00000KT 10SM CLR M16/M19 A3029 RMK AO2 SLP343 T11611194 58002 FZRANO
KGUC 170756Z AUTO 05003KT 10SM CLR M15/M17 A3029 RMK AO2 SLP345 T11501172 FZRANO
KGUC 170656Z AUTO 00000KT 10SM CLR M13/M17 A3030 RMK AO2 SLP350 T11281167 FZRANO
KGUC 170556Z AUTO 05005KT 10SM CLR M13/M17 A3030 RMK AO2 SLP354 T11331167 11050 21150 410331206 51003 FZRANO
KGUC 170456Z AUTO 36003KT 10SM CLR M13/M17 A3030 RMK AO2 SLP362 T11331167 FZRANO
KGUC 170356Z AUTO 00000KT 10SM CLR M12/M16 A3029 RMK AO2 SLP373 T11221161 FZRANO
KGUC 170256Z AUTO 00000KT 10SM CLR M10/M15 A3028 RMK AO2 SLP374 T11001150 51010 FZRANO
KGUC 170156Z AUTO 00000KT 10SM CLR M08/M14 A3028 RMK AO2 SLP364 T10831144 FZRANO
KGUC 170056Z AUTO 35005KT 10SM CLR M07/M13 A3026 RMK AO2 SLP350 T10721133 FZRANO
KGUC 162356Z AUTO 36008KT 10SM CLR M05/M13 A3025 RMK AO2 SLP332 T10501128 11033 21106 55006 FZRANO
KGUC 162256Z AUTO 01007KT 10SM CLR M04/M12 A3025 RMK AO2 SLP332 T10391122 FZRANO